createdAt,value
2023-04-22T00:01:31.224Z,23.00
2023-04-22T00:05:29.236Z,23.70
2023-04-22T00:09:27.207Z,23.90
2023-04-22T00:13:25.151Z,21.70
2023-04-22T00:17:23.172Z,22.10
2023-04-22T00:21:21.120Z,22.90
2023-04-22T00:25:19.218Z,21.90
2023-04-22T00:29:18.253Z,21.50
2023-04-22T00:33:16.205Z,22.10
2023-04-22T00:37:14.137Z,21.40
2023-04-22T00:41:12.174Z,22.10
2023-04-22T00:45:10.082Z,20.40
2023-04-22T00:49:08.144Z,22.30
2023-04-22T00:53:07.234Z,21.80
2023-04-22T00:57:05.201Z,20.10
2023-04-22T01:01:03.246Z,21.40
2023-04-22T01:05:02.182Z,20.10
2023-04-22T01:09:01.097Z,21.50
2023-04-22T01:12:59.101Z,20.90
2023-04-22T01:16:58.196Z,21.50
2023-04-22T01:20:56.079Z,20.90
2023-04-22T01:24:54.067Z,21.10
2023-04-22T01:28:52.106Z,19.30
2023-04-22T01:32:50.152Z,19.90
2023-04-22T01:36:50.056Z,19.00
2023-04-22T01:40:49.057Z,20.50
2023-04-22T01:44:47.024Z,20.90
2023-04-22T01:48:45.057Z,22.70
2023-04-22T01:52:43.167Z,20.00
2023-04-22T01:56:41.032Z,20.00
2023-04-22T02:00:39.113Z,18.80
2023-04-22T02:04:37.182Z,20.00
2023-04-22T02:08:35.020Z,19.90
2023-04-22T02:12:32.942Z,20.20
2023-04-22T02:16:31.228Z,19.50
2023-04-22T02:20:29.024Z,19.40
2023-04-22T02:24:30.127Z,20.70
2023-04-22T02:28:27.976Z,20.00
2023-04-22T02:32:26.020Z,19.70
2023-04-22T02:36:23.996Z,20.60
2023-04-22T02:40:21.994Z,19.70
2023-04-22T02:44:19.946Z,19.80
2023-04-22T02:48:17.940Z,20.30
2023-04-22T02:52:16.973Z,19.60
2023-04-22T02:56:16.060Z,19.20
2023-04-22T03:00:14.022Z,19.00
2023-04-22T03:04:13.141Z,20.00
2023-04-22T03:08:11.006Z,20.00
2023-04-22T03:12:08.978Z,20.40
2023-04-22T03:16:06.947Z,21.70
2023-04-22T03:20:04.939Z,22.40
2023-04-22T03:24:02.940Z,22.50
2023-04-22T03:28:01.918Z,21.20
2023-04-22T03:31:59.939Z,20.80
2023-04-22T03:35:58.905Z,21.40
2023-04-22T03:39:56.887Z,19.70
2023-04-22T03:43:54.965Z,20.50
2023-04-22T03:47:53.036Z,20.70
2023-04-22T03:51:58.002Z,20.80
2023-04-22T03:55:55.963Z,19.60
2023-04-22T03:59:55.927Z,20.60
2023-04-22T04:03:54.013Z,19.90
2023-04-22T04:07:57.991Z,20.00
2023-04-22T04:11:55.829Z,19.20
2023-04-22T04:15:57.044Z,19.60
2023-04-22T04:19:54.895Z,19.70
2023-04-22T04:23:52.826Z,20.70
2023-04-22T04:27:52.816Z,18.10
2023-04-22T04:31:51.021Z,20.70
2023-04-22T04:35:49.788Z,20.00
2023-04-22T04:39:50.835Z,19.60
2023-04-22T04:43:52.797Z,19.90
2023-04-22T04:47:56.981Z,18.90
2023-04-22T04:51:59.014Z,18.40
2023-04-22T04:55:57.792Z,19.40
2023-04-22T04:59:55.778Z,18.70
2023-04-22T05:03:57.055Z,18.30
2023-04-22T05:07:55.749Z,18.30
2023-04-22T05:11:54.939Z,15.00
2023-04-22T05:15:53.762Z,14.00
2023-04-22T05:19:51.937Z,14.30
2023-04-22T05:23:50.889Z,14.00
2023-04-22T05:27:48.752Z,12.30
2023-04-22T05:31:47.928Z,11.40
2023-04-22T05:35:45.795Z,9.80
2023-04-22T05:39:43.783Z,10.30
2023-04-22T05:43:41.809Z,9.70
2023-04-22T05:47:42.967Z,9.60
2023-04-22T05:51:41.798Z,9.30
2023-04-22T05:55:40.798Z,8.40
2023-04-22T05:59:39.146Z,8.60
2023-04-22T06:03:36.949Z,7.00
2023-04-22T06:07:34.728Z,8.60
2023-04-22T06:11:32.745Z,8.70
2023-04-22T06:15:30.802Z,9.40
2023-04-22T06:19:28.703Z,10.20
2023-04-22T06:23:26.687Z,12.10
2023-04-22T06:27:24.717Z,12.80
2023-04-22T06:31:22.928Z,12.00
2023-04-22T06:35:20.781Z,11.40
2023-04-22T06:39:19.747Z,12.10
2023-04-22T06:43:17.692Z,11.60
2023-04-22T06:47:33.788Z,11.00
2023-04-22T06:51:39.735Z,8.10
2023-04-22T06:55:37.654Z,8.00
2023-04-22T06:59:35.694Z,7.40
2023-04-22T07:03:35.872Z,7.50
2023-04-22T07:07:35.645Z,7.00
2023-04-22T07:11:34.740Z,5.50
2023-04-22T07:15:37.745Z,4.80
2023-04-22T07:19:35.734Z,4.30
2023-04-22T07:23:33.708Z,5.50
2023-04-22T07:27:31.628Z,4.90
2023-04-22T07:31:29.676Z,4.20
2023-04-22T07:35:27.636Z,5.20
2023-04-22T07:39:25.625Z,5.20
2023-04-22T07:43:23.659Z,4.80
2023-04-22T07:47:21.705Z,5.00
2023-04-22T07:51:19.611Z,4.50
2023-04-22T07:55:17.633Z,4.20
2023-04-22T07:59:15.717Z,3.80
2023-04-22T08:03:16.944Z,4.70
2023-04-22T08:07:31.736Z,4.60
2023-04-22T08:11:30.587Z,5.00
2023-04-22T08:15:28.574Z,5.40
2023-04-22T08:19:26.600Z,5.10
2023-04-22T08:23:24.597Z,5.80
2023-04-22T08:27:22.520Z,5.20
2023-04-22T08:31:20.584Z,4.90
2023-04-22T08:35:18.531Z,6.00
2023-04-22T08:39:17.572Z,5.80
2023-04-22T08:43:15.530Z,5.20
2023-04-22T08:47:13.726Z,5.30
2023-04-22T08:51:12.500Z,5.70
2023-04-22T08:55:10.672Z,4.90
2023-04-22T08:59:10.595Z,4.20
2023-04-22T09:03:08.687Z,2.90
2023-04-22T09:07:06.551Z,3.40
2023-04-22T09:11:04.514Z,3.70
2023-04-22T09:15:02.501Z,4.00
2023-04-22T09:19:00.513Z,3.50
2023-04-22T09:23:04.538Z,3.60
2023-04-22T09:27:04.906Z,3.70
2023-04-22T09:31:02.513Z,3.40
2023-04-22T09:35:09.504Z,3.40
2023-04-22T09:39:18.535Z,3.50
2023-04-22T09:43:19.517Z,3.50
2023-04-22T09:47:18.474Z,3.50
2023-04-22T09:51:16.564Z,3.00
2023-04-22T09:55:14.466Z,2.90
2023-04-22T09:59:12.479Z,3.10
2023-04-22T10:03:11.212Z,3.00
2023-04-22T10:07:09.518Z,3.30
2023-04-22T10:11:08.408Z,3.20
2023-04-22T10:15:06.488Z,3.60
2023-04-22T10:19:05.417Z,3.20
2023-04-22T10:23:03.571Z,3.50
2023-04-22T10:27:09.463Z,3.10
2023-04-22T10:31:08.471Z,3.90
2023-04-22T10:35:21.569Z,3.70
2023-04-22T10:39:19.463Z,4.40
2023-04-22T10:43:17.395Z,4.00
2023-04-22T10:47:15.520Z,3.90
2023-04-22T10:51:13.410Z,5.10
2023-04-22T10:55:12.617Z,4.00
2023-04-22T10:59:13.407Z,4.70
2023-04-22T11:03:20.511Z,4.50
2023-04-22T11:07:44.420Z,4.60
2023-04-22T11:11:42.630Z,4.90
2023-04-22T11:15:40.389Z,4.70
2023-04-22T11:19:38.657Z,4.60
2023-04-22T11:23:41.354Z,4.80
2023-04-22T11:27:40.466Z,4.40
2023-04-22T11:31:38.469Z,4.70
2023-04-22T11:35:43.366Z,4.60
2023-04-22T11:40:13.075Z,4.50
2023-04-22T11:48:07.349Z,4.60
2023-04-22T11:52:09.346Z,4.60
2023-04-22T11:56:07.377Z,4.80
2023-04-22T12:00:14.457Z,4.60
2023-04-22T12:04:15.426Z,4.30
2023-04-22T12:08:15.363Z,4.60
2023-04-22T12:12:13.565Z,4.60
2023-04-22T12:16:16.308Z,5.30
2023-04-22T12:20:15.318Z,5.50
2023-04-22T12:24:15.290Z,5.40
2023-04-22T12:28:13.323Z,4.70
2023-04-22T12:32:11.289Z,4.70
2023-04-22T12:36:10.312Z,4.40
2023-04-22T12:40:08.384Z,4.50
2023-04-22T12:44:06.368Z,4.30
2023-04-22T12:48:08.952Z,4.70
2023-04-22T12:52:07.348Z,5.80
2023-04-22T12:56:08.391Z,5.70
2023-04-22T13:00:06.379Z,4.60
2023-04-22T13:04:04.622Z,5.10
2023-04-22T13:08:06.989Z,4.90
2023-04-22T13:12:06.351Z,5.40
2023-04-22T13:16:05.300Z,5.10
2023-04-22T13:20:03.326Z,4.90
2023-04-22T13:24:01.274Z,5.60
2023-04-22T13:27:59.279Z,5.80
2023-04-22T13:31:58.409Z,4.90
2023-04-22T13:35:56.239Z,5.30
2023-04-22T13:39:54.353Z,5.20
2023-04-22T13:43:52.336Z,4.90
2023-04-22T13:47:51.272Z,5.20
2023-04-22T13:51:49.252Z,12.70
2023-04-22T13:55:50.237Z,5.80
2023-04-22T13:59:50.215Z,5.00
2023-04-22T14:03:48.338Z,5.40
2023-04-22T14:07:46.346Z,7.20
2023-04-22T14:11:46.270Z,5.40
2023-04-22T14:15:44.251Z,6.60
2023-04-22T14:19:44.167Z,5.40
2023-04-22T14:23:42.210Z,4.90
2023-04-22T14:27:41.186Z,5.30
2023-04-22T14:31:39.233Z,5.30
2023-04-22T14:35:37.182Z,5.40
2023-04-22T14:39:35.169Z,5.70
2023-04-22T14:43:34.402Z,5.10
2023-04-22T14:47:32.298Z,4.40
2023-04-22T14:51:30.250Z,5.10
2023-04-22T14:55:28.186Z,5.80
2023-04-22T14:59:26.212Z,5.60
2023-04-22T15:03:24.422Z,5.70
2023-04-22T15:07:22.170Z,5.70
2023-04-22T15:11:20.204Z,5.90
2023-04-22T15:15:20.161Z,6.10
2023-04-22T15:19:18.253Z,4.90
2023-04-22T15:23:16.129Z,5.60
2023-04-22T15:27:14.242Z,6.40
2023-04-22T15:31:20.152Z,5.80
2023-04-22T15:35:18.268Z,5.60
2023-04-22T15:39:17.221Z,6.40
2023-04-22T15:43:15.215Z,5.30
2023-04-22T15:47:14.139Z,5.00
2023-04-22T15:51:12.282Z,5.40
2023-04-22T15:55:10.142Z,5.10
2023-04-22T15:59:08.176Z,5.00
2023-04-22T16:03:07.342Z,5.00
2023-04-22T16:07:06.110Z,4.70
2023-04-22T16:11:04.165Z,5.00
2023-04-22T16:15:02.201Z,5.80
2023-04-22T16:19:00.235Z,5.00
2023-04-22T16:22:58.099Z,5.40
2023-04-22T16:26:56.208Z,5.20
2023-04-22T16:30:55.142Z,6.10
2023-04-22T16:34:53.076Z,7.10
2023-04-22T16:38:51.166Z,6.80
2023-04-22T16:42:49.118Z,9.20
2023-04-22T16:46:47.109Z,13.30
2023-04-22T16:50:45.027Z,16.90
2023-04-22T16:54:43.067Z,19.30
2023-04-22T16:58:41.140Z,15.00
2023-04-22T17:02:41.142Z,13.40
2023-04-22T17:06:40.107Z,10.10
2023-04-22T17:10:38.148Z,8.10
2023-04-22T17:14:36.029Z,6.60
2023-04-22T17:18:34.094Z,6.10
2023-04-22T17:22:32.084Z,6.60
2023-04-22T17:26:30.070Z,6.90
2023-04-22T17:30:28.150Z,6.60
2023-04-22T17:34:26.139Z,5.70
2023-04-22T17:38:24.096Z,6.60
2023-04-22T17:42:23.771Z,6.10
2023-04-22T17:46:25.096Z,6.60
2023-04-22T17:50:23.059Z,7.00
2023-04-22T17:54:21.141Z,7.40
2023-04-22T17:58:20.267Z,8.00
2023-04-22T18:02:12.327Z,7.90
2023-04-22T18:06:09.970Z,7.80
2023-04-22T18:10:08.033Z,7.70
2023-04-22T18:14:06.014Z,8.80
2023-04-22T18:18:05.069Z,9.60
2023-04-22T18:22:02.964Z,10.90
2023-04-22T18:26:00.957Z,10.30
2023-04-22T18:29:58.945Z,10.70
2023-04-22T18:33:56.928Z,11.80
2023-04-22T18:37:54.992Z,12.10
2023-04-22T18:41:52.920Z,12.20
2023-04-22T18:45:50.964Z,12.70
2023-04-22T18:49:48.907Z,13.70
2023-04-22T18:53:46.942Z,13.70
2023-04-22T18:57:44.964Z,13.50
2023-04-22T19:01:45.284Z,12.60
2023-04-22T19:05:43.011Z,14.40
2023-04-22T19:09:41.964Z,13.70
2023-04-22T19:13:39.899Z,13.90
2023-04-22T19:17:38.071Z,13.90
2023-04-22T19:21:37.328Z,15.40
2023-04-22T19:25:36.061Z,17.10
2023-04-22T19:29:33.856Z,15.70
2023-04-22T19:33:31.887Z,13.80
2023-04-22T19:37:32.911Z,14.60
2023-04-22T19:41:30.836Z,16.10
2023-04-22T19:45:28.945Z,16.60
2023-04-22T19:49:26.864Z,14.40
2023-04-22T19:53:24.882Z,15.40
2023-04-22T19:57:24.900Z,14.70
2023-04-22T20:01:22.864Z,15.00
2023-04-22T20:05:20.993Z,15.40
2023-04-22T20:09:18.973Z,15.00
2023-04-22T20:13:16.965Z,16.90
2023-04-22T20:17:15.797Z,22.00
2023-04-22T20:21:14.864Z,19.60
2023-04-22T20:25:17.854Z,19.50
2023-04-22T20:29:16.843Z,17.10
2023-04-22T20:33:19.674Z,22.40
2023-04-22T20:37:18.782Z,17.30
2023-04-22T20:41:21.796Z,21.50
2023-04-22T20:45:21.814Z,18.40
2023-04-22T20:49:19.770Z,24.30
2023-04-22T20:53:17.883Z,23.70
2023-04-22T20:57:15.919Z,25.60
2023-04-22T21:01:13.952Z,23.60
2023-04-22T21:05:11.802Z,23.80
2023-04-22T21:09:09.755Z,22.50
2023-04-22T21:13:08.781Z,25.60
2023-04-22T21:17:18.880Z,19.40
2023-04-22T21:21:17.752Z,22.70
2023-04-22T21:25:15.831Z,21.70
2023-04-22T21:29:13.732Z,23.10
2023-04-22T21:33:11.854Z,23.80
2023-04-22T21:37:09.723Z,22.30
2023-04-22T21:41:07.736Z,25.10
2023-04-22T21:45:05.692Z,24.70
2023-04-22T21:49:03.729Z,24.30
2023-04-22T21:53:01.719Z,22.40
2023-04-22T21:56:59.705Z,24.90
2023-04-22T22:00:57.815Z,25.90
2023-04-22T22:04:55.735Z,27.30
2023-04-22T22:08:55.690Z,28.10
2023-04-22T22:12:53.793Z,27.30
2023-04-22T22:16:51.855Z,29.10
2023-04-22T22:20:50.724Z,26.20
2023-04-22T22:24:49.795Z,26.30
2023-04-22T22:28:47.775Z,23.40
2023-04-22T22:32:46.897Z,26.20
2023-04-22T22:36:44.681Z,25.20
2023-04-22T22:40:42.624Z,27.90
2023-04-22T22:44:40.897Z,28.90
2023-04-22T22:48:38.674Z,25.50
2023-04-22T22:52:36.641Z,25.90
2023-04-22T22:56:34.729Z,29.00
2023-04-22T23:00:32.708Z,32.00
2023-04-22T23:04:30.749Z,28.90
2023-04-22T23:08:28.692Z,27.70
2023-04-22T23:12:26.617Z,27.30
2023-04-22T23:16:24.772Z,25.30
2023-04-22T23:20:23.604Z,28.50
2023-04-22T23:24:26.856Z,27.80
2023-04-22T23:28:24.610Z,26.40
2023-04-22T23:32:22.786Z,27.70
2023-04-22T23:36:23.593Z,28.50
2023-04-22T23:40:22.672Z,26.10
2023-04-22T23:44:20.526Z,26.70
2023-04-22T23:48:18.613Z,26.40
2023-04-22T23:52:17.608Z,26.70
2023-04-22T23:56:15.575Z,23.90
